createdAt,value
2022-10-25T00:01:59.439Z,98103.50
2022-10-25T00:04:28.496Z,98106.31
2022-10-25T00:06:57.672Z,98108.06
2022-10-25T00:09:27.175Z,98106.31
2022-10-25T00:11:56.113Z,98102.31
2022-10-25T00:14:26.022Z,98109.06
2022-10-25T00:16:55.063Z,98108.41
2022-10-25T00:19:24.368Z,98106.94
2022-10-25T00:21:53.458Z,98113.09
2022-10-25T00:24:22.456Z,98112.44
2022-10-25T00:26:51.618Z,98116.16
2022-10-25T00:29:20.749Z,98119.50
2022-10-25T00:31:50.027Z,98118.41
2022-10-25T00:34:19.054Z,98115.78
2022-10-25T00:36:48.399Z,98123.50
2022-10-25T00:39:17.971Z,98123.44
2022-10-25T00:41:46.904Z,98124.81
2022-10-25T00:44:38.007Z,98120.56
2022-10-25T00:47:29.752Z,98120.22
2022-10-25T00:50:54.215Z,98127.69
2022-10-25T00:53:29.550Z,98123.31
2022-10-25T00:56:05.326Z,98127.88
2022-10-25T00:58:38.352Z,98122.16
2022-10-25T01:01:11.759Z,98133.88
2022-10-25T01:03:48.365Z,98124.50
2022-10-25T01:06:35.394Z,98129.91
2022-10-25T01:09:12.277Z,98124.13
2022-10-25T01:11:47.675Z,98132.94
2022-10-25T01:14:24.818Z,98139.34
2022-10-25T01:17:23.039Z,98134.75
2022-10-25T01:20:13.644Z,98134.41
2022-10-25T01:23:13.643Z,98143.00
2022-10-25T01:26:21.044Z,98149.50
2022-10-25T01:29:08.102Z,98142.63
2022-10-25T01:31:50.719Z,98151.91
2022-10-25T01:34:29.951Z,98152.91
2022-10-25T01:37:27.430Z,98153.63
2022-10-25T01:40:10.627Z,98159.53
2022-10-25T01:43:24.081Z,98162.78
2022-10-25T01:46:10.603Z,98161.13
2022-10-25T01:48:49.222Z,98165.59
2022-10-25T01:51:20.126Z,98158.69
2022-10-25T01:53:51.869Z,98168.84
2022-10-25T01:56:33.717Z,98165.84
2022-10-25T01:59:21.026Z,98175.09
2022-10-25T02:02:10.531Z,98179.75
2022-10-25T02:04:58.594Z,98177.28
2022-10-25T02:08:02.173Z,98183.78
2022-10-25T02:10:54.238Z,98183.44
2022-10-25T02:13:46.431Z,98177.84
2022-10-25T02:16:21.879Z,98185.72
2022-10-25T02:18:56.888Z,98189.94
2022-10-25T02:21:28.542Z,98179.47
2022-10-25T02:23:59.999Z,98186.31
2022-10-25T02:26:30.106Z,98188.66
2022-10-25T02:29:00.240Z,98194.31
2022-10-25T02:31:32.311Z,98198.25
2022-10-25T02:34:02.270Z,98205.81
2022-10-25T02:36:31.788Z,98202.88
2022-10-25T02:39:02.206Z,98213.72
2022-10-25T02:41:31.716Z,98209.69
2022-10-25T02:44:01.446Z,98214.50
2022-10-25T02:46:30.827Z,98207.97
2022-10-25T02:49:00.850Z,98217.19
2022-10-25T02:51:30.187Z,98220.16
2022-10-25T02:53:59.472Z,98224.09
2022-10-25T02:56:29.074Z,98227.91
2022-10-25T02:59:00.195Z,98228.06
2022-10-25T03:01:29.845Z,98236.66
2022-10-25T03:03:59.023Z,98236.22
2022-10-25T03:06:29.004Z,98231.13
2022-10-25T03:08:58.302Z,98235.72
2022-10-25T03:11:27.860Z,98246.34
2022-10-25T03:13:57.145Z,98243.13
2022-10-25T03:16:26.242Z,98247.78
2022-10-25T03:19:01.204Z,98251.91
2022-10-25T03:21:30.699Z,98247.22
2022-10-25T03:24:00.676Z,98255.41
2022-10-25T03:26:30.300Z,98262.97
2022-10-25T03:28:59.526Z,98267.38
2022-10-25T03:31:29.245Z,98260.09
2022-10-25T03:33:58.445Z,98262.75
2022-10-25T03:36:28.225Z,98264.03
2022-10-25T03:38:58.269Z,98267.84
2022-10-25T03:41:27.693Z,98273.50
2022-10-25T03:43:57.981Z,98274.63
2022-10-25T03:46:27.215Z,98275.94
2022-10-25T03:48:56.873Z,98277.34
2022-10-25T03:51:26.459Z,98283.59
2022-10-25T03:53:55.780Z,98286.97
2022-10-25T03:56:24.818Z,98291.38
2022-10-25T03:58:54.681Z,98296.94
2022-10-25T04:01:24.134Z,98288.03
2022-10-25T04:03:53.681Z,98291.13
2022-10-25T04:06:23.396Z,98295.38
2022-10-25T04:08:52.480Z,98303.41
2022-10-25T04:11:22.073Z,98301.63
2022-10-25T04:13:51.162Z,98308.72
2022-10-25T04:16:21.032Z,98301.47
2022-10-25T04:18:54.840Z,98297.88
2022-10-25T04:21:25.179Z,98311.00
2022-10-25T04:23:54.624Z,98301.78
2022-10-25T04:26:24.021Z,98309.81
2022-10-25T04:28:57.930Z,98313.03
2022-10-25T04:31:27.308Z,98309.81
2022-10-25T04:33:57.567Z,98314.09
2022-10-25T04:36:29.670Z,98319.88
2022-10-25T04:38:58.928Z,98317.38
2022-10-25T04:41:28.692Z,98316.25
2022-10-25T04:43:58.688Z,98322.44
2022-10-25T04:46:28.170Z,98320.22
2022-10-25T04:48:57.456Z,98320.28
2022-10-25T04:51:26.815Z,98321.22
2022-10-25T04:53:57.787Z,98317.50
2022-10-25T04:56:27.237Z,98315.88
2022-10-25T04:58:56.709Z,98322.63
2022-10-25T05:01:26.400Z,98323.66
2022-10-25T05:03:55.632Z,98322.63
2022-10-25T05:06:28.057Z,98319.69
2022-10-25T05:08:57.851Z,98320.16
2022-10-25T05:11:27.901Z,98321.38
2022-10-25T05:13:57.150Z,98318.47
2022-10-25T05:16:27.221Z,98317.69
2022-10-25T05:18:57.603Z,98319.31
2022-10-25T05:21:29.665Z,98315.59
2022-10-25T05:24:02.076Z,98309.22
2022-10-25T05:26:31.992Z,98302.66
2022-10-25T05:29:01.447Z,98307.16
2022-10-25T05:31:32.398Z,98315.16
2022-10-25T05:34:02.861Z,98301.53
2022-10-25T05:36:34.400Z,98305.88
2022-10-25T05:39:41.605Z,98304.81
2022-10-25T05:42:11.650Z,98296.47
2022-10-25T05:44:50.850Z,98298.59
2022-10-25T05:47:21.048Z,98296.53
2022-10-25T05:49:51.850Z,98293.59
2022-10-25T05:52:22.294Z,98289.69
2022-10-25T05:54:53.094Z,98286.22
2022-10-25T05:57:24.875Z,98282.66
2022-10-25T05:59:57.244Z,98294.09
2022-10-25T06:02:31.612Z,98276.31
2022-10-25T06:05:04.218Z,98274.84
2022-10-25T06:07:38.912Z,98276.31
2022-10-25T06:10:10.937Z,98276.94
2022-10-25T06:12:41.970Z,98269.38
2022-10-25T06:15:11.798Z,98273.78
2022-10-25T06:17:42.442Z,98275.56
2022-10-25T06:20:12.651Z,98267.47
2022-10-25T06:22:43.467Z,98266.81
2022-10-25T06:25:14.708Z,98262.28
2022-10-25T06:27:45.400Z,98258.16
2022-10-25T06:30:16.413Z,98251.97
2022-10-25T06:32:47.103Z,98253.69
2022-10-25T06:35:18.047Z,98248.88
2022-10-25T06:37:47.857Z,98243.69
2022-10-25T06:40:19.050Z,98238.50
2022-10-25T06:42:48.749Z,98251.78
2022-10-25T06:45:19.103Z,98237.59
2022-10-25T06:47:49.586Z,98237.16
2022-10-25T06:50:18.989Z,98229.88
2022-10-25T06:52:51.183Z,98229.25
2022-10-25T06:55:21.107Z,98225.00
2022-10-25T06:57:52.552Z,98214.38
2022-10-25T07:00:21.970Z,98217.09
2022-10-25T07:03:01.190Z,98223.28
2022-10-25T07:05:30.499Z,98214.03
2022-10-25T07:07:59.766Z,98213.34
2022-10-25T07:10:29.240Z,98204.34
2022-10-25T07:12:58.621Z,98202.78
2022-10-25T07:15:36.375Z,98204.38
2022-10-25T07:18:08.347Z,98192.97
2022-10-25T07:20:37.459Z,98197.59
2022-10-25T07:23:08.716Z,98197.13
2022-10-25T07:25:38.348Z,98191.72
2022-10-25T07:28:07.434Z,98191.59
2022-10-25T07:30:36.903Z,98196.88
2022-10-25T07:33:06.058Z,98188.97
2022-10-25T07:35:46.695Z,98185.72
2022-10-25T07:38:27.939Z,98182.63
2022-10-25T07:40:59.093Z,98185.38
2022-10-25T07:43:29.711Z,98183.25
2022-10-25T07:45:59.485Z,98180.81
2022-10-25T07:48:29.118Z,98183.03
2022-10-25T07:50:58.387Z,98172.09
2022-10-25T07:53:28.437Z,98174.13
2022-10-25T07:55:57.655Z,98170.03
2022-10-25T07:58:26.981Z,98168.47
2022-10-25T08:01:02.878Z,98167.38
2022-10-25T08:03:32.429Z,98164.50
2022-10-25T08:06:02.506Z,98162.00
2022-10-25T08:08:32.173Z,98158.19
2022-10-25T08:11:05.290Z,98155.16
2022-10-25T08:13:35.065Z,98150.44
2022-10-25T08:16:04.929Z,98153.00
2022-10-25T08:18:35.239Z,98148.16
2022-10-25T08:21:05.597Z,98142.19
2022-10-25T08:23:34.795Z,98136.56
2022-10-25T08:26:04.577Z,98136.88
2022-10-25T08:28:34.263Z,98134.00
2022-10-25T08:31:05.453Z,98142.84
2022-10-25T08:33:35.296Z,98136.22
2022-10-25T08:36:04.597Z,98128.56
2022-10-25T08:38:34.230Z,98124.81
2022-10-25T08:41:25.205Z,98130.34
2022-10-25T08:44:13.426Z,98132.75
2022-10-25T08:46:54.008Z,98128.63
2022-10-25T08:49:33.331Z,98116.22
2022-10-25T08:52:04.301Z,98130.34
2022-10-25T08:54:44.107Z,98127.19
2022-10-25T08:57:27.803Z,98117.00
2022-10-25T09:00:02.085Z,98119.97
2022-10-25T09:02:55.767Z,98117.22
2022-10-25T09:05:42.846Z,98129.38
2022-10-25T09:08:36.496Z,98127.53
2022-10-25T09:11:36.914Z,98119.22
2022-10-25T09:14:21.499Z,98126.69
2022-10-25T09:16:59.976Z,98125.00
2022-10-25T09:19:51.064Z,98129.59
2022-10-25T09:22:31.266Z,98124.94
2022-10-25T09:25:28.105Z,98121.91
2022-10-25T09:28:09.739Z,98122.66
2022-10-25T09:30:44.775Z,98127.19
2022-10-25T09:35:58.140Z,98119.22
2022-10-25T09:38:51.417Z,98118.53
2022-10-25T09:41:41.087Z,98121.66
2022-10-25T09:44:45.088Z,98117.81
2022-10-25T09:47:49.729Z,98110.38
2022-10-25T09:50:29.498Z,98122.03
2022-10-25T09:53:16.659Z,98118.06
2022-10-25T09:55:59.646Z,98115.78
2022-10-25T09:58:32.653Z,98117.38
2022-10-25T10:01:14.004Z,98121.47
2022-10-25T10:03:45.720Z,98121.72
2022-10-25T10:06:28.077Z,98128.53
2022-10-25T10:09:07.343Z,98122.44
2022-10-25T10:11:37.964Z,98118.09
2022-10-25T10:14:27.619Z,98125.78
2022-10-25T10:17:01.525Z,98122.94
2022-10-25T10:19:31.804Z,98117.91
2022-10-25T10:22:16.480Z,98124.47
2022-10-25T10:24:49.247Z,98125.69
2022-10-25T10:27:24.442Z,98121.97
2022-10-25T10:30:08.733Z,98127.25
2022-10-25T10:35:29.530Z,98119.09
2022-10-25T10:38:23.826Z,98120.41
2022-10-25T10:41:17.212Z,98122.00
2022-10-25T10:43:49.249Z,98131.63
2022-10-25T10:46:25.897Z,98130.53
2022-10-25T10:48:57.264Z,98131.53
2022-10-25T10:51:46.951Z,98123.09
2022-10-25T10:54:28.746Z,98125.16
2022-10-25T10:57:05.790Z,98132.31
2022-10-25T10:59:57.653Z,98135.09
2022-10-25T11:02:42.857Z,98135.72
2022-10-25T11:05:39.383Z,98141.47
2022-10-25T11:08:09.452Z,98139.91
2022-10-25T11:10:39.648Z,98145.53
2022-10-25T11:13:20.374Z,98148.31
2022-10-25T11:16:15.111Z,98152.03
2022-10-25T11:19:11.015Z,98152.75
2022-10-25T11:21:45.953Z,98156.84
2022-10-25T11:24:41.403Z,98160.09
2022-10-25T11:27:45.239Z,98154.66
2022-10-25T11:30:19.419Z,98161.50
2022-10-25T11:33:10.039Z,98162.09
2022-10-25T11:35:57.602Z,98158.22
2022-10-25T11:38:42.347Z,98160.19
2022-10-25T11:41:50.044Z,98153.44
2022-10-25T11:44:44.337Z,98164.81
2022-10-25T11:47:18.591Z,98163.22
2022-10-25T11:50:13.350Z,98164.53
2022-10-25T11:53:00.016Z,98166.72
2022-10-25T11:55:34.938Z,98168.78
2022-10-25T11:58:31.362Z,98177.84
2022-10-25T12:01:21.626Z,98171.56
2022-10-25T12:04:08.769Z,98185.97
2022-10-25T12:06:49.831Z,98183.34
2022-10-25T12:10:09.827Z,98185.22
2022-10-25T12:12:51.103Z,98186.31
2022-10-25T12:15:37.928Z,98187.91
2022-10-25T12:18:11.487Z,98193.22
2022-10-25T12:20:41.249Z,98193.84
2022-10-25T12:23:17.262Z,98190.59
2022-10-25T12:25:54.681Z,98191.44
2022-10-25T12:28:42.286Z,98202.31
2022-10-25T12:31:28.187Z,98197.41
2022-10-25T12:34:21.525Z,98202.88
2022-10-25T12:36:56.785Z,98196.22
2022-10-25T12:39:56.244Z,98200.13
2022-10-25T12:42:31.030Z,98215.25
2022-10-25T12:45:27.730Z,98214.63
2022-10-25T12:48:26.576Z,98222.00
2022-10-25T12:51:05.185Z,98226.91
2022-10-25T12:54:03.304Z,98227.56
2022-10-25T12:56:57.970Z,98228.09
2022-10-25T12:59:39.266Z,98231.16
2022-10-25T13:02:31.106Z,98235.81
2022-10-25T13:05:44.227Z,98246.50
2022-10-25T13:08:18.173Z,98242.34
2022-10-25T13:11:00.477Z,98244.34
2022-10-25T13:13:40.522Z,98249.88
2022-10-25T13:16:12.050Z,98257.31
2022-10-25T13:18:49.068Z,98256.47
2022-10-25T13:21:38.870Z,98261.88
2022-10-25T13:24:11.304Z,98263.75
2022-10-25T13:27:19.954Z,98271.16
2022-10-25T13:30:29.365Z,98276.13
2022-10-25T13:33:25.644Z,98271.25
2022-10-25T13:35:55.364Z,98269.00
2022-10-25T13:38:39.621Z,98279.97
2022-10-25T13:41:16.265Z,98282.50
2022-10-25T13:44:00.595Z,98279.69
2022-10-25T13:46:36.759Z,98288.72
2022-10-25T13:49:28.689Z,98287.28
2022-10-25T13:52:01.223Z,98292.25
2022-10-25T13:54:40.971Z,98302.97
2022-10-25T13:57:51.396Z,98299.09
2022-10-25T14:00:23.301Z,98305.03
2022-10-25T14:03:10.910Z,98312.41
2022-10-25T14:05:58.219Z,98313.44
2022-10-25T14:08:48.864Z,98307.66
2022-10-25T14:11:24.646Z,98320.72
2022-10-25T14:14:13.033Z,98316.81
2022-10-25T14:16:57.097Z,98330.38
2022-10-25T14:19:37.604Z,98336.22
2022-10-25T14:22:29.062Z,98335.44
2022-10-25T14:25:05.694Z,98342.97
2022-10-25T14:27:37.750Z,98345.53
2022-10-25T14:30:22.593Z,98347.88
2022-10-25T14:32:57.597Z,98344.56
2022-10-25T14:35:34.275Z,98347.66
2022-10-25T14:38:05.188Z,98342.94
2022-10-25T14:40:34.129Z,98342.53
2022-10-25T14:43:35.291Z,98351.38
2022-10-25T14:46:15.371Z,98353.47
2022-10-25T14:48:49.697Z,98356.19
2022-10-25T14:51:23.863Z,98366.31
2022-10-25T14:53:57.566Z,98357.84
2022-10-25T14:57:04.214Z,98370.03
2022-10-25T14:59:44.789Z,98359.91
2022-10-25T15:02:26.125Z,98371.50
2022-10-25T15:04:58.634Z,98371.59
2022-10-25T15:07:35.231Z,98374.88
2022-10-25T15:12:39.936Z,98373.97
2022-10-25T15:15:48.913Z,98373.13
2022-10-25T15:18:35.267Z,98373.47
2022-10-25T15:21:07.534Z,98376.16
2022-10-25T15:23:37.167Z,98378.03
2022-10-25T15:26:29.357Z,98382.56
2022-10-25T15:29:02.214Z,98380.19
2022-10-25T15:31:33.861Z,98387.22
2022-10-25T15:34:05.890Z,98386.28
2022-10-25T15:36:35.722Z,98386.44
2022-10-25T15:39:19.407Z,98386.44
2022-10-25T15:41:49.381Z,98384.25
2022-10-25T15:44:18.527Z,98385.84
2022-10-25T15:46:50.195Z,98400.06
2022-10-25T15:49:20.737Z,98392.38
2022-10-25T15:51:50.553Z,98398.47
2022-10-25T15:54:24.884Z,98403.25
2022-10-25T15:56:55.474Z,98397.09
2022-10-25T15:59:24.968Z,98404.19
2022-10-25T16:01:56.889Z,98395.41
2022-10-25T16:04:26.295Z,98402.97
2022-10-25T16:06:55.239Z,98402.69
2022-10-25T16:09:25.362Z,98401.81
2022-10-25T16:11:56.335Z,98398.94
2022-10-25T16:14:28.583Z,98403.44
2022-10-25T16:17:01.039Z,98396.94
2022-10-25T16:19:32.644Z,98407.63
2022-10-25T16:22:01.831Z,98406.09
2022-10-25T16:24:31.617Z,98412.34
2022-10-25T16:27:02.362Z,98408.19
2022-10-25T16:29:31.957Z,98409.22
2022-10-25T16:32:01.318Z,98409.38
2022-10-25T16:34:30.432Z,98405.28
2022-10-25T16:36:59.686Z,98406.97
2022-10-25T16:39:28.656Z,98417.75
2022-10-25T16:41:59.569Z,98416.06
2022-10-25T16:44:28.943Z,98413.69
2022-10-25T16:46:58.775Z,98413.69
2022-10-25T16:49:28.066Z,98414.59
2022-10-25T16:51:57.131Z,98414.53
2022-10-25T16:54:26.344Z,98416.53
2022-10-25T16:56:55.372Z,98415.69
2022-10-25T16:59:25.028Z,98422.03
2022-10-25T17:01:57.354Z,98421.59
2022-10-25T17:04:26.216Z,98421.00
2022-10-25T17:06:55.437Z,98422.94
2022-10-25T17:09:24.752Z,98428.41
2022-10-25T17:11:54.101Z,98424.13
2022-10-25T17:14:23.244Z,98421.56
2022-10-25T17:16:52.284Z,98431.16
2022-10-25T17:19:21.306Z,98421.78
2022-10-25T17:21:50.715Z,98427.09
2022-10-25T17:24:20.668Z,98429.94
2022-10-25T17:26:50.347Z,98425.66
2022-10-25T17:29:19.712Z,98437.03
2022-10-25T17:31:48.858Z,98430.19
2022-10-25T17:34:18.846Z,98432.13
2022-10-25T17:36:48.089Z,98436.72
2022-10-25T17:39:18.238Z,98433.34
2022-10-25T17:41:47.332Z,98436.13
2022-10-25T17:44:16.303Z,98436.13
2022-10-25T17:46:45.384Z,98430.25
2022-10-25T17:49:14.474Z,98430.38
2022-10-25T17:51:44.952Z,98435.56
2022-10-25T17:54:14.258Z,98433.72
2022-10-25T17:56:43.258Z,98433.00
2022-10-25T17:59:12.419Z,98433.00
2022-10-25T18:01:41.670Z,98431.75
2022-10-25T18:04:10.893Z,98428.91
2022-10-25T18:06:40.250Z,98428.22
2022-10-25T18:09:10.574Z,98422.00
2022-10-25T18:11:40.121Z,98425.00
2022-10-25T18:14:09.484Z,98425.91
2022-10-25T18:16:39.021Z,98432.06
2022-10-25T18:19:08.217Z,98425.97
2022-10-25T18:21:37.262Z,98430.75
2022-10-25T18:24:07.151Z,98426.78
2022-10-25T18:26:36.756Z,98427.44
2022-10-25T18:29:05.926Z,98429.25
2022-10-25T18:31:35.188Z,98427.59
2022-10-25T18:34:07.237Z,98424.97
2022-10-25T18:36:37.282Z,98421.72
2022-10-25T18:39:06.629Z,98421.66
2022-10-25T18:41:36.529Z,98421.88
2022-10-25T18:44:05.646Z,98414.97
2022-10-25T18:46:34.990Z,98419.41
2022-10-25T18:49:04.327Z,98419.34
2022-10-25T18:51:34.236Z,98413.13
2022-10-25T18:54:04.223Z,98415.72
2022-10-25T18:56:33.584Z,98403.88
2022-10-25T18:59:02.737Z,98402.88
2022-10-25T19:01:34.846Z,98401.28
2022-10-25T19:04:05.309Z,98402.19
2022-10-25T19:06:35.963Z,98395.50
2022-10-25T19:09:05.695Z,98399.81
2022-10-25T19:11:36.333Z,98400.78
2022-10-25T19:14:06.455Z,98399.25
2022-10-25T19:16:36.956Z,98398.56
2022-10-25T19:19:08.223Z,98399.25
2022-10-25T19:21:37.800Z,98394.44
2022-10-25T19:24:07.461Z,98393.75
2022-10-25T19:26:36.746Z,98393.84
2022-10-25T19:29:05.729Z,98395.50
2022-10-25T19:31:35.126Z,98394.56
2022-10-25T19:34:07.166Z,98391.19
2022-10-25T19:36:36.476Z,98393.94
2022-10-25T19:39:06.229Z,98393.19
2022-10-25T19:41:35.488Z,98399.66
2022-10-25T19:44:05.754Z,98394.38
2022-10-25T19:46:34.837Z,98397.84
2022-10-25T19:49:04.184Z,98390.38
2022-10-25T19:51:33.438Z,98389.84
2022-10-25T19:54:02.399Z,98397.53
2022-10-25T19:56:32.412Z,98390.66
2022-10-25T19:59:01.697Z,98392.88
2022-10-25T20:01:31.601Z,98400.66
2022-10-25T20:04:01.913Z,98392.84
2022-10-25T20:06:36.101Z,98398.66
2022-10-25T20:09:05.434Z,98395.88
2022-10-25T20:11:35.090Z,98396.06
2022-10-25T20:14:05.584Z,98389.72
2022-10-25T20:16:34.942Z,98391.75
2022-10-25T20:19:05.627Z,98394.47
2022-10-25T20:21:37.738Z,98396.56
2022-10-25T20:24:10.274Z,98396.28
2022-10-25T20:26:42.427Z,98392.75
2022-10-25T20:29:21.405Z,98393.47
2022-10-25T20:31:52.301Z,98390.56
2022-10-25T20:34:21.593Z,98392.47
2022-10-25T20:36:50.630Z,98393.19
2022-10-25T20:39:20.073Z,98391.34
2022-10-25T20:41:49.378Z,98389.66
2022-10-25T20:44:20.341Z,98394.75
2022-10-25T20:46:51.297Z,98386.41
2022-10-25T20:49:20.671Z,98391.13
2022-10-25T20:51:49.608Z,98384.13
2022-10-25T20:54:18.579Z,98386.69
2022-10-25T20:56:47.644Z,98388.78
2022-10-25T20:59:16.852Z,98387.88
2022-10-25T21:01:46.694Z,98380.19
2022-10-25T21:04:25.752Z,98383.84
2022-10-25T21:07:07.414Z,98386.44
2022-10-25T21:09:36.545Z,98386.31
2022-10-25T21:12:05.677Z,98391.88
2022-10-25T21:14:34.613Z,98391.53
2022-10-25T21:17:03.938Z,98388.91
2022-10-25T21:19:32.796Z,98386.84
2022-10-25T21:22:02.118Z,98386.66
2022-10-25T21:24:31.084Z,98383.06
2022-10-25T21:27:00.079Z,98389.16
2022-10-25T21:29:29.101Z,98386.06
2022-10-25T21:31:58.052Z,98375.88
2022-10-25T21:34:27.337Z,98382.94
2022-10-25T21:36:56.267Z,98382.94
2022-10-25T21:39:25.525Z,98383.94
2022-10-25T21:41:54.559Z,98383.06
2022-10-25T21:44:23.913Z,98381.31
2022-10-25T21:46:53.174Z,98379.84
2022-10-25T21:49:22.411Z,98382.63
2022-10-25T21:51:51.448Z,98389.69
2022-10-25T21:56:53.713Z,98373.19
2022-10-25T21:59:23.985Z,98382.50
2022-10-25T22:01:53.385Z,98378.53
2022-10-25T22:04:25.097Z,98387.19
2022-10-25T22:06:54.931Z,98384.78
2022-10-25T22:09:24.074Z,98387.25
2022-10-25T22:11:53.871Z,98387.00
2022-10-25T22:14:22.822Z,98383.63
2022-10-25T22:16:52.026Z,98385.28
2022-10-25T22:21:53.579Z,98392.94
2022-10-25T22:24:22.579Z,98392.03
2022-10-25T22:26:52.354Z,98392.75
2022-10-25T22:29:21.522Z,98391.91
2022-10-25T22:31:50.976Z,98394.56
2022-10-25T22:34:19.960Z,98387.41
2022-10-25T22:36:49.154Z,98398.59
2022-10-25T22:39:18.562Z,98392.78
2022-10-25T22:41:54.069Z,98399.13
2022-10-25T22:46:57.320Z,98404.66
2022-10-25T22:49:26.364Z,98401.16
2022-10-25T22:51:55.456Z,98400.94
2022-10-25T22:54:24.668Z,98396.66
2022-10-25T22:56:53.996Z,98401.00
2022-10-25T22:59:23.311Z,98404.47
2022-10-25T23:01:52.285Z,98408.75
2022-10-25T23:04:21.555Z,98405.25
2022-10-25T23:06:50.679Z,98413.91
2022-10-25T23:09:19.802Z,98418.94
2022-10-25T23:11:48.969Z,98417.09
2022-10-25T23:14:17.989Z,98416.47
2022-10-25T23:16:47.714Z,98418.81
2022-10-25T23:19:17.014Z,98412.78
2022-10-25T23:21:46.249Z,98416.38
2022-10-25T23:24:15.220Z,98421.59
2022-10-25T23:26:44.289Z,98412.28
2022-10-25T23:29:14.550Z,98420.09
2022-10-25T23:31:43.690Z,98420.28
2022-10-25T23:34:12.848Z,98424.66
2022-10-25T23:36:42.063Z,98422.13
2022-10-25T23:39:11.231Z,98433.63
2022-10-25T23:41:40.437Z,98428.75
2022-10-25T23:44:09.542Z,98433.75
2022-10-25T23:46:38.784Z,98440.66
2022-10-25T23:49:07.752Z,98437.03
2022-10-25T23:51:37.098Z,98441.38
2022-10-25T23:54:06.248Z,98447.59
2022-10-25T23:56:35.220Z,98451.09
2022-10-25T23:59:04.743Z,98453.69
